Time;durP1;ratioP1;P1;durP2;ratioP2;P2;SDS_P1;SDS_P2;PMS_P1;PMS_P2;Temp;Humidity;BMP_temperature;BMP_pressure;BME280_temperature;BME280_humidity;BME280_pressure;Samples;Min_cycle;Max_cycle;Signal;HPM_P1;HPM_P2
2022/06/08 00:00:15;;;;;;;2.30;1.05;;;;;;;13.81;100.00;95657.22;5014400;28;25020;-76
2022/06/08 00:02:43;;;;;;;2.30;0.93;;;;;;;13.79;100.00;95654.75;5014001;28;24421;-76
2022/06/08 00:05:10;;;;;;;1.27;0.93;;;;;;;13.62;100.00;95651.78;5013664;28;24447;-76
2022/06/08 00:07:38;;;;;;;2.00;1.20;;;;;;;13.41;100.00;95641.22;5013931;28;24459;-76
2022/06/08 00:10:06;;;;;;;1.80;1.10;;;;;;;13.34;100.00;95643.47;5014073;28;24416;-75
2022/06/08 00:12:33;;;;;;;2.33;1.00;;;;;;;13.26;100.00;95638.84;5014028;28;24428;-76
2022/06/08 00:14:59;;;;;;;3.50;1.10;;;;;;;13.26;100.00;95643.22;5013328;28;24459;-76
2022/06/08 00:17:26;;;;;;;1.65;1.13;;;;;;;13.19;100.00;95636.78;5013292;28;24437;-76
2022/06/08 00:19:54;;;;;;;1.50;1.00;;;;;;;13.13;100.00;95632.88;5013826;28;24523;-76
2022/06/08 00:22:21;;;;;;;1.48;1.08;;;;;;;13.20;100.00;95634.09;5013158;28;24425;-76
2022/06/08 00:24:49;;;;;;;1.05;0.93;;;;;;;13.30;100.00;95635.06;5013488;28;24490;-76
2022/06/08 00:27:16;;;;;;;0.90;0.85;;;;;;;13.32;100.00;95622.78;5013040;28;24448;-76
2022/06/08 00:29:42;;;;;;;1.08;0.98;;;;;;;13.41;100.00;95630.81;5013629;28;24443;-76
2022/06/08 00:32:09;;;;;;;1.10;1.00;;;;;;;13.44;100.00;95625.38;5013568;28;24900;-75
2022/06/08 00:34:36;;;;;;;1.20;1.10;;;;;;;13.44;100.00;95621.00;5012798;28;25027;-75
2022/06/08 00:37:03;;;;;;;2.00;1.05;;;;;;;13.34;100.00;95620.03;5013257;28;25001;-75
2022/06/08 00:39:29;;;;;;;0.90;0.80;;;;;;;13.22;100.00;95613.16;5013262;28;24950;-76
2022/06/08 00:42:00;;;;;;;6.20;1.20;;;;;;;13.22;100.00;95616.56;5013277;28;24428;-76
2022/06/08 00:44:31;;;;;;;2.00;0.95;;;;;;;13.24;100.00;95614.72;5013183;28;24445;-76
2022/06/08 00:46:58;;;;;;;1.63;1.10;;;;;;;13.05;100.00;95620.47;5017836;28;24472;-76
2022/06/08 00:49:29;;;;;;;1.50;1.10;;;;;;;13.11;100.00;95610.53;5027704;28;24551;-76
2022/06/08 00:51:58;;;;;;;1.57;1.07;;;;;;;13.20;100.00;95615.03;5021771;28;24974;-76
2022/06/08 00:54:27;;;;;;;1.50;0.90;;;;;;;13.22;100.00;95610.56;5013395;28;24487;-76
2022/06/08 00:57:03;;;;;;;1.02;0.85;;;;;;;13.28;100.00;95608.34;5013736;28;24502;-76
2022/06/08 00:59:30;;;;;;;1.42;1.10;;;;;;;13.30;100.00;95603.84;5013571;28;24474;-76
2022/06/08 01:01:56;;;;;;;3.47;1.10;;;;;;;13.31;100.00;95597.72;5013434;28;24440;-76
2022/06/08 01:04:23;;;;;;;1.10;1.00;;;;;;;13.37;100.00;95592.97;5013573;28;24431;-76
2022/06/08 01:06:55;;;;;;;1.30;0.90;;;;;;;13.36;100.00;95594.75;5012515;28;24507;-76
2022/06/08 01:09:27;;;;;;;2.45;0.90;;;;;;;13.38;100.00;95595.44;5012595;28;24842;-76
2022/06/08 01:11:57;;;;;;;1.77;0.95;;;;;;;13.36;100.00;95593.94;5013008;28;24439;-76
2022/06/08 01:14:26;;;;;;;1.50;0.98;;;;;;;13.25;100.00;95586.94;5013005;28;24420;-76
2022/06/08 01:16:57;;;;;;;1.77;1.10;;;;;;;13.23;100.00;95588.78;5012622;28;24437;-75
2022/06/08 01:19:23;;;;;;;1.02;0.77;;;;;;;13.28;100.00;95586.72;5013229;28;24445;-76
2022/06/08 01:21:54;;;;;;;1.35;1.00;;;;;;;13.26;100.00;95589.41;5012888;28;24517;-75
2022/06/08 01:24:20;;;;;;;1.20;0.90;;;;;;;13.24;100.00;95586.13;5012631;28;24404;-75
2022/06/08 01:27:01;;;;;;;1.13;0.73;;;;;;;13.25;100.00;95587.78;5012025;28;24444;-76
2022/06/08 01:29:32;;;;;;;1.13;0.80;;;;;;;13.20;100.00;95581.22;5012364;28;24448;-75
2022/06/08 01:32:10;;;;;;;1.10;0.90;;;;;;;13.22;100.00;95579.34;5013113;28;24425;-76
2022/06/08 01:34:47;;;;;;;1.15;0.77;;;;;;;13.13;100.00;95573.09;5012417;28;25004;-76
2022/06/08 01:37:28;;;;;;;0.73;0.73;;;;;;;13.18;100.00;95577.94;5012458;28;24424;-76
2022/06/08 01:40:16;;;;;;;1.70;1.08;;;;;;;13.21;100.00;95582.91;5012318;28;24827;-75
2022/06/08 01:42:58;;;;;;;1.92;0.93;;;;;;;13.04;100.00;95579.78;5012825;28;24432;-76
2022/06/08 01:45:37;;;;;;;1.65;1.15;;;;;;;13.04;100.00;95573.75;5012617;28;24560;-75
2022/06/08 01:48:20;;;;;;;1.80;0.80;;;;;;;13.02;100.00;95578.28;5013036;28;24524;-75
2022/06/08 01:50:57;;;;;;;1.58;0.90;;;;;;;13.01;100.00;95576.59;5012679;28;24424;-75
2022/06/08 01:53:36;;;;;;;1.27;0.87;;;;;;;12.87;100.00;95572.44;5012479;28;25060;-75
2022/06/08 01:56:12;;;;;;;0.93;0.77;;;;;;;12.87;100.00;95566.41;5012324;28;25000;-75
2022/06/08 01:58:48;;;;;;;2.13;1.10;;;;;;;12.83;100.00;95563.22;4992766;28;25034;-75
2022/06/08 02:01:20;;;;;;;1.63;1.00;;;;;;;12.77;100.00;95564.50;4993185;28;24433;-76
2022/06/08 02:03:58;;;;;;;1.45;0.93;;;;;;;12.63;100.00;95569.91;4994200;28;24435;-75
2022/06/08 02:06:42;;;;;;;1.20;0.90;;;;;;;12.64;100.00;95561.16;5014275;28;24819;-75
2022/06/08 02:09:14;;;;;;;1.85;0.93;;;;;;;12.61;100.00;95556.22;5016495;28;24429;-75
2022/06/08 02:11:44;;;;;;;1.95;1.00;;;;;;;12.45;100.00;95559.09;4996880;28;24425;-76
2022/06/08 02:14:14;;;;;;;1.58;1.10;;;;;;;12.43;100.00;95553.19;4996839;28;24823;-75
2022/06/08 02:16:47;;;;;;;1.95;1.13;;;;;;;12.49;100.00;95555.31;5015491;28;24436;-76
2022/06/08 02:19:20;;;;;;;5.95;1.05;;;;;;;12.43;100.00;95545.41;5016224;28;24435;-75
2022/06/08 02:21:50;;;;;;;1.23;0.90;;;;;;;12.42;100.00;95545.50;5015727;28;24408;-75
2022/06/08 02:24:23;;;;;;;1.33;0.80;;;;;;;12.50;100.00;95538.00;5015338;28;24992;-76
2022/06/08 02:26:55;;;;;;;2.73;1.00;;;;;;;12.55;100.00;95541.06;5014045;28;24503;-75
2022/06/08 02:29:27;;;;;;;1.42;0.60;;;;;;;12.48;100.00;95537.25;5015560;28;24436;-75
2022/06/08 02:31:58;;;;;;;3.47;0.88;;;;;;;12.43;100.00;95535.00;4996025;28;24439;-75
2022/06/08 02:34:31;;;;;;;1.58;0.95;;;;;;;12.37;100.00;95535.44;4995777;28;24460;-75
2022/06/08 02:37:03;;;;;;;0.60;0.60;;;;;;;12.39;100.00;95537.94;5014813;28;24444;-75
2022/06/08 02:39:35;;;;;;;1.05;0.47;;;;;;;12.33;100.00;95532.25;5015575;28;24435;-75
2022/06/08 02:42:06;;;;;;;1.63;0.85;;;;;;;12.32;100.00;95533.19;5015467;28;24420;-75
2022/06/08 02:44:34;;;;;;;1.50;1.10;;;;;;;12.12;100.00;95536.41;5015317;28;24463;-75
2022/06/08 02:47:05;;;;;;;3.83;1.03;;;;;;;12.25;100.00;95526.81;5015006;28;24455;-75
2022/06/08 02:49:34;;;;;;;2.63;1.30;;;;;;;12.02;100.00;95525.06;5015705;28;24511;-76
2022/06/08 02:52:04;;;;;;;2.40;1.20;;;;;;;11.97;100.00;95532.34;5014970;28;24533;-76
2022/06/08 02:54:32;;;;;;;1.60;1.00;;;;;;;11.95;100.00;95523.84;5014967;28;24437;-75
2022/06/08 02:57:04;;;;;;;4.90;1.30;;;;;;;11.95;100.00;95516.06;5015176;28;24432;-76
2022/06/08 02:59:40;;;;;;;2.10;1.15;;;;;;;12.07;100.00;95510.78;5014807;28;24440;-76
2022/06/08 03:02:14;;;;;;;2.23;1.17;;;;;;;12.15;100.00;95510.22;5014841;28;25055;-76
2022/06/08 03:04:46;;;;;;;1.42;1.00;;;;;;;12.18;100.00;95516.97;5015210;28;24419;-75
2022/06/08 03:07:17;;;;;;;2.90;1.13;;;;;;;12.23;100.00;95514.88;5014959;28;24624;-75
2022/06/08 03:09:47;;;;;;;1.40;1.00;;;;;;;12.33;100.00;95508.06;5014969;28;24956;-75
2022/06/08 03:12:19;;;;;;;1.38;0.82;;;;;;;12.35;100.00;95514.81;5014730;28;24436;-75
2022/06/08 03:14:47;;;;;;;1.80;0.87;;;;;;;12.34;100.00;95509.69;5014789;28;24424;-75
2022/06/08 03:17:17;;;;;;;1.30;0.82;;;;;;;12.43;100.00;95510.81;5014155;28;24502;-75
2022/06/08 03:19:44;;;;;;;1.20;0.80;;;;;;;12.43;100.00;95506.44;5015092;28;24421;-75
2022/06/08 03:22:11;;;;;;;1.30;0.82;;;;;;;12.43;100.00;95503.03;5014692;28;24432;-75
2022/06/08 03:24:37;;;;;;;4.13;1.10;;;;;;;12.31;100.00;95500.38;5014207;28;24417;-75
2022/06/08 03:27:08;;;;;;;1.60;0.80;;;;;;;12.38;100.00;95499.91;5014690;28;24461;-75
2022/06/08 03:29:35;;;;;;;1.77;0.80;;;;;;;12.41;100.00;95497.09;5014848;28;24519;-75
2022/06/08 03:32:01;;;;;;;2.10;0.90;;;;;;;12.42;100.00;95491.81;5014969;28;24447;-75
2022/06/08 03:34:28;;;;;;;1.97;0.97;;;;;;;12.44;100.00;95491.69;5014542;28;24481;-75
2022/06/08 03:36:54;;;;;;;1.40;1.20;;;;;;;12.32;100.00;95496.03;5015400;28;24440;-75
2022/06/08 03:39:21;;;;;;;1.58;1.08;;;;;;;12.02;100.00;95483.53;5014980;28;24455;-75
2022/06/08 03:41:47;;;;;;;2.40;0.98;;;;;;;12.13;100.00;95493.97;5015609;28;24443;-76
2022/06/08 03:44:15;;;;;;;2.88;1.10;;;;;;;12.15;100.00;95486.88;5015450;28;24436;-75
2022/06/08 03:46:45;;;;;;;1.95;1.10;;;;;;;12.24;100.00;95495.75;5014985;28;24449;-75
2022/06/08 03:49:12;;;;;;;1.40;0.93;;;;;;;12.19;100.00;95495.25;5001097;28;24436;-75
2022/06/08 03:51:41;;;;;;;1.75;0.80;;;;;;;12.18;100.00;95493.59;5007205;28;24447;-75
2022/06/08 03:54:12;;;;;;;1.10;0.80;;;;;;;11.97;100.00;95485.63;5016412;28;24440;-75
2022/06/08 03:56:40;;;;;;;1.83;0.88;;;;;;;12.15;100.00;95489.47;5015057;28;24443;-75
2022/06/08 03:59:07;;;;;;;2.03;0.90;;;;;;;12.24;100.00;95491.41;5013969;28;24475;-76
2022/06/08 04:01:35;;;;;;;1.75;0.80;;;;;;;12.29;100.00;95494.47;5012828;28;24791;-76
2022/06/08 04:04:02;;;;;;;2.33;1.02;;;;;;;12.35;100.00;95491.44;5012762;28;24478;-76
2022/06/08 04:06:29;;;;;;;2.30;0.80;;;;;;;12.25;100.00;95487.03;5012691;28;24453;-76
2022/06/08 04:08:55;;;;;;;2.33;1.20;;;;;;;12.14;100.00;95484.41;5012463;28;24798;-76
2022/06/08 04:11:22;;;;;;;2.28;1.05;;;;;;;12.09;100.00;95500.31;5012692;28;24531;-75
2022/06/08 04:13:49;;;;;;;2.05;0.90;;;;;;;12.09;100.00;95497.72;5012646;28;24420;-75
2022/06/08 04:16:16;;;;;;;2.15;1.05;;;;;;;12.08;100.00;95491.66;5011451;28;24443;-76
2022/06/08 04:18:44;;;;;;;2.08;0.90;;;;;;;12.13;100.00;95500.91;5005841;28;24558;-74
2022/06/08 04:21:12;;;;;;;2.28;1.13;;;;;;;12.19;100.00;95503.03;5007577;28;24448;-75
2022/06/08 04:23:41;;;;;;;1.98;1.17;;;;;;;11.96;100.00;95494.34;5010256;28;24448;-75
2022/06/08 04:26:08;;;;;;;1.77;1.00;;;;;;;12.08;100.00;95483.06;5011973;28;24455;-78
2022/06/08 04:28:36;;;;;;;1.67;1.03;;;;;;;12.24;100.00;95477.59;5011257;28;24487;-75
2022/06/08 04:31:03;;;;;;;3.00;1.05;;;;;;;12.35;100.00;95475.03;5011904;28;24858;-76
2022/06/08 04:33:30;;;;;;;1.95;1.13;;;;;;;12.41;100.00;95476.31;5012032;28;24428;-76
2022/06/08 04:35:58;;;;;;;2.58;1.27;;;;;;;12.42;100.00;95473.63;5011866;28;24436;-76
2022/06/08 04:38:25;;;;;;;2.72;1.02;;;;;;;12.45;100.00;95472.56;5009718;28;24444;-76
2022/06/08 04:40:51;;;;;;;2.20;1.27;;;;;;;12.54;100.00;95471.88;5012149;28;24417;-76
2022/06/08 04:43:18;;;;;;;2.22;1.13;;;;;;;12.48;100.00;95469.72;5012087;28;24432;-76
2022/06/08 04:45:45;;;;;;;2.78;0.98;;;;;;;12.50;100.00;95467.84;5011585;28;24424;-75
2022/06/08 04:48:12;;;;;;;12.93;1.20;;;;;;;12.56;100.00;95470.78;5011772;28;24464;-76
2022/06/08 04:50:39;;;;;;;3.47;1.17;;;;;;;12.59;100.00;95480.97;5011992;28;24424;-76
2022/06/08 04:53:07;;;;;;;1.50;0.90;;;;;;;12.63;100.00;95480.75;5011711;28;25009;-76
2022/06/08 04:55:34;;;;;;;7.47;1.63;;;;;;;12.64;100.00;95480.59;5011840;28;24489;-76
2022/06/08 04:58:01;;;;;;;1.23;0.90;;;;;;;12.72;100.00;95483.47;5000021;28;24433;-76
2022/06/08 05:00:28;;;;;;;2.22;1.13;;;;;;;12.57;100.00;95488.06;4992003;28;24884;-76
2022/06/08 05:02:56;;;;;;;3.47;1.38;;;;;;;12.52;100.00;95484.97;5004071;28;24432;-76
2022/06/08 05:05:25;;;;;;;2.27;1.30;;;;;;;12.57;100.00;95485.47;5011423;28;24466;-76
2022/06/08 05:07:52;;;;;;;1.50;1.00;;;;;;;12.56;100.00;95488.16;5011498;28;24464;-76
2022/06/08 05:10:21;;;;;;;2.03;1.15;;;;;;;12.67;100.00;95482.97;5011922;28;24437;-77
2022/06/08 05:12:47;;;;;;;2.70;1.15;;;;;;;12.65;100.00;95484.06;5008697;28;24499;-76
2022/06/08 05:15:18;;;;;;;2.60;1.10;;;;;;;12.60;100.00;95495.59;5003900;28;24976;-74
2022/06/08 05:17:45;;;;;;;2.30;1.00;;;;;;;12.61;100.00;95496.44;5007342;28;24439;-76
2022/06/08 05:20:16;;;;;;;2.00;1.20;;;;;;;12.49;100.00;95495.56;5009528;28;24428;-76
2022/06/08 05:22:43;;;;;;;2.92;1.13;;;;;;;12.43;100.00;95492.63;5009685;28;24441;-76
2022/06/08 05:25:13;;;;;;;8.18;1.30;;;;;;;12.34;100.00;95491.53;4991234;28;24424;-76
2022/06/08 05:27:41;;;;;;;2.35;1.42;;;;;;;12.31;100.00;95490.00;5011086;28;24534;-75
2022/06/08 05:30:10;;;;;;;3.10;1.23;;;;;;;12.31;100.00;95490.00;5011077;28;24412;-75
2022/06/08 05:32:36;;;;;;;2.42;1.15;;;;;;;12.38;100.00;95482.56;5010690;28;24436;-75
2022/06/08 05:35:03;;;;;;;2.42;1.08;;;;;;;12.52;100.00;95476.34;5006480;28;24436;-76
2022/06/08 05:37:30;;;;;;;2.35;1.35;;;;;;;12.61;100.00;95480.88;5010847;28;24448;-76
2022/06/08 05:39:56;;;;;;;4.15;1.50;;;;;;;12.58;100.00;95478.50;5009681;28;24479;-74
2022/06/08 05:42:23;;;;;;;1.70;0.90;;;;;;;12.70;100.00;95477.56;5010924;28;24480;-75
2022/06/08 05:44:51;;;;;;;3.53;1.30;;;;;;;12.70;100.00;95479.34;5009621;28;24862;-75
2022/06/08 05:47:17;;;;;;;3.70;1.30;;;;;;;12.87;100.00;95475.44;5006573;28;24464;-75
2022/06/08 05:49:43;;;;;;;2.55;1.23;;;;;;;12.83;100.00;95460.09;5009723;28;24870;-76
2022/06/08 05:52:11;;;;;;;2.00;1.13;;;;;;;12.93;100.00;95467.19;5012719;28;24849;-76
2022/06/08 05:54:37;;;;;;;4.53;1.20;;;;;;;13.01;100.00;95470.81;5013466;28;24444;-77
2022/06/08 05:57:06;;;;;;;4.15;1.33;;;;;;;13.12;100.00;95470.00;5015589;28;24447;-77
2022/06/08 05:59:32;;;;;;;3.35;1.23;;;;;;;13.25;100.00;95467.31;5013315;28;24416;-76
2022/06/08 06:02:00;;;;;;;3.45;1.40;;;;;;;13.32;100.00;95471.91;5005921;28;24444;-77
2022/06/08 06:04:26;;;;;;;5.57;1.30;;;;;;;13.45;100.00;95463.16;5012471;28;24416;-74
2022/06/08 06:06:53;;;;;;;3.20;1.40;;;;;;;13.54;100.00;95458.06;5011693;28;25171;-77
2022/06/08 06:09:20;;;;;;;3.38;1.40;;;;;;;13.51;100.00;95454.88;5011948;28;24437;-74
2022/06/08 06:11:49;;;;;;;3.42;1.23;;;;;;;13.63;100.00;95461.69;5011882;28;24446;-77
2022/06/08 06:14:15;;;;;;;4.20;1.20;;;;;;;13.68;100.00;95462.16;4993570;28;24435;-75
2022/06/08 06:16:42;;;;;;;2.40;1.08;;;;;;;13.74;100.00;95460.81;5003856;28;24429;-75
2022/06/08 06:19:10;;;;;;;2.78;1.40;;;;;;;13.73;100.00;95459.19;5011993;28;24779;-76
2022/06/08 06:21:36;;;;;;;2.85;1.15;;;;;;;13.79;100.00;95462.13;5012164;28;24420;-74
2022/06/08 06:24:04;;;;;;;5.70;1.70;;;;;;;13.93;100.00;95457.56;5008172;28;24449;-74
2022/06/08 06:26:31;;;;;;;5.30;1.48;;;;;;;13.93;100.00;95449.75;5001042;28;24444;-74
2022/06/08 06:28:58;;;;;;;2.85;1.23;;;;;;;13.98;100.00;95442.41;5011130;28;24447;-73
2022/06/08 06:31:29;;;;;;;2.50;1.30;;;;;;;14.21;100.00;95445.72;5000265;28;24436;-73
2022/06/08 06:33:55;;;;;;;3.10;1.55;;;;;;;14.36;100.00;95444.47;4992500;28;24417;-74
2022/06/08 06:36:23;;;;;;;2.50;1.25;;;;;;;14.40;100.00;95438.03;4992216;28;24417;-73
2022/06/08 06:38:49;;;;;;;3.03;1.13;;;;;;;14.46;100.00;95442.75;4992704;28;24564;-74
2022/06/08 06:41:17;;;;;;;3.58;1.30;;;;;;;14.66;100.00;95441.09;4992569;28;24416;-73
2022/06/08 06:43:44;;;;;;;3.85;1.58;;;;;;;14.80;100.00;95442.56;4992088;28;24424;-74
2022/06/08 06:46:11;;;;;;;3.05;1.40;;;;;;;14.97;100.00;95439.31;4990635;28;24436;-73
2022/06/08 06:48:38;;;;;;;2.70;1.38;;;;;;;15.24;100.00;95443.97;4991675;28;24466;-74
2022/06/08 06:51:05;;;;;;;9.93;1.60;;;;;;;15.56;100.00;95437.69;4992841;28;24926;-73
2022/06/08 06:53:33;;;;;;;2.92;1.52;;;;;;;15.31;100.00;95435.59;4997177;28;24803;-74
2022/06/08 06:56:00;;;;;;;3.47;1.40;;;;;;;15.35;100.00;95439.56;4996831;28;24818;-74
2022/06/08 06:58:26;;;;;;;11.27;1.60;;;;;;;15.65;100.00;95442.16;4996147;28;24495;-74
2022/06/08 07:00:53;;;;;;;4.50;1.25;;;;;;;16.03;100.00;95437.91;4995534;28;24421;-74
2022/06/08 07:03:20;;;;;;;4.20;1.40;;;;;;;16.42;100.00;95433.47;4995761;28;24419;-74
2022/06/08 07:05:47;;;;;;;3.03;1.38;;;;;;;16.73;100.00;95427.22;4995802;28;24528;-73
2022/06/08 07:08:13;;;;;;;4.22;1.60;;;;;;;16.94;100.00;95430.47;4996078;28;24456;-74
2022/06/08 07:10:43;;;;;;;3.25;1.40;;;;;;;16.77;100.00;95431.25;4996358;28;24969;-74
2022/06/08 07:13:10;;;;;;;2.83;1.23;;;;;;;16.73;100.00;95425.44;4996049;28;24880;-74
2022/06/08 07:15:36;;;;;;;2.80;1.17;;;;;;;16.83;99.41;95428.03;4996255;28;24417;-74
2022/06/08 07:18:03;;;;;;;5.63;1.58;;;;;;;16.60;100.00;95425.72;4996012;28;24457;-74
2022/06/08 07:20:29;;;;;;;5.50;1.38;;;;;;;16.65;98.52;95414.88;4996142;28;24462;-74
2022/06/08 07:22:56;;;;;;;6.15;1.70;;;;;;;16.43;98.44;95416.84;4995811;28;24787;-74
2022/06/08 07:25:22;;;;;;;5.93;1.50;;;;;;;16.82;98.07;95405.47;4995576;28;24479;-74
2022/06/08 07:27:50;;;;;;;3.67;1.42;;;;;;;17.38;93.55;95401.91;5013764;28;25072;-74
2022/06/08 07:30:17;;;;;;;6.22;1.30;;;;;;;17.84;91.13;95406.16;5015629;28;24431;-74
2022/06/08 07:32:43;;;;;;;3.25;1.45;;;;;;;18.03;91.48;95405.19;5015916;28;24655;-74
2022/06/08 07:35:11;;;;;;;2.63;1.45;;;;;;;18.43;87.48;95403.88;5015364;28;24432;-73
2022/06/08 07:37:38;;;;;;;2.33;1.27;;;;;;;18.38;87.68;95400.84;5015826;28;24429;-74
2022/06/08 07:40:06;;;;;;;3.20;1.23;;;;;;;18.26;88.15;95386.38;5015944;28;24436;-74
2022/06/08 07:42:32;;;;;;;3.33;1.52;;;;;;;18.53;87.10;95378.34;5015680;28;24420;-74
2022/06/08 07:45:00;;;;;;;5.43;1.77;;;;;;;18.97;86.01;95377.47;5015225;28;24427;-74
2022/06/08 07:47:26;;;;;;;6.60;1.77;;;;;;;19.08;84.47;95370.13;5015412;28;25017;-74
2022/06/08 07:49:52;;;;;;;5.18;1.63;;;;;;;19.31;83.15;95374.78;5016083;28;24474;-74
2022/06/08 07:52:21;;;;;;;2.77;1.37;;;;;;;19.15;77.77;95369.50;5015775;28;24421;-74
2022/06/08 07:54:48;;;;;;;6.50;1.25;;;;;;;19.25;78.52;95367.56;5015461;28;24427;-74
2022/06/08 07:57:18;;;;;;;3.97;1.30;;;;;;;19.69;75.89;95368.19;5016201;28;24770;-73
2022/06/08 07:59:45;;;;;;;2.50;0.90;;;;;;;19.92;72.87;95372.81;5013062;28;24427;-73
2022/06/08 08:02:14;;;;;;;3.60;1.33;;;;;;;19.69;73.60;95375.22;5013898;28;24456;-75
2022/06/08 08:04:41;;;;;;;3.58;1.27;;;;;;;19.92;72.66;95371.00;5013214;28;24428;-74
2022/06/08 08:07:08;;;;;;;3.33;1.35;;;;;;;20.28;71.99;95365.41;5014231;28;24966;-74
2022/06/08 08:09:35;;;;;;;3.85;1.33;;;;;;;20.20;72.63;95363.59;5014324;28;24506;-73
2022/06/08 08:12:03;;;;;;;6.22;1.65;;;;;;;20.46;71.90;95354.69;5015329;28;24428;-73
2022/06/08 08:14:33;;;;;;;5.70;2.00;;;;;;;20.55;70.99;95359.00;5014848;28;24432;-74
2022/06/08 08:17:00;;;;;;;5.35;1.42;;;;;;;20.82;69.40;95352.50;5014795;28;24532;-74
2022/06/08 08:19:27;;;;;;;3.00;1.13;;;;;;;20.69;70.42;95365.34;5014174;28;24954;-75
2022/06/08 08:21:56;;;;;;;3.50;1.58;;;;;;;20.79;69.34;95353.66;5014043;28;24440;-74
2022/06/08 08:24:23;;;;;;;2.65;1.30;;;;;;;20.47;70.63;95351.91;5014135;28;24524;-74
2022/06/08 08:26:51;;;;;;;6.00;1.42;;;;;;;20.42;68.87;95345.50;5013378;28;24513;-74
2022/06/08 08:29:17;;;;;;;11.85;1.70;;;;;;;20.57;64.50;95345.66;5013395;28;24518;-73
2022/06/08 08:31:44;;;;;;;2.92;1.13;;;;;;;20.27;65.48;95347.97;5013606;28;24436;-74
2022/06/08 08:34:11;;;;;;;2.72;0.93;;;;;;;20.41;66.42;95338.59;5014664;28;24432;-75
2022/06/08 08:36:39;;;;;;;3.20;1.20;;;;;;;20.87;62.37;95328.28;5014152;28;24519;-74
2022/06/08 08:39:06;;;;;;;3.23;1.17;;;;;;;21.09;63.38;95324.91;5013677;28;24806;-74
2022/06/08 08:44:30;;;;;;;2.25;1.10;;;;;;;21.58;61.07;95321.22;5013838;28;25036;-74
2022/06/08 08:47:02;;;;;;;2.35;1.23;;;;;;;21.08;59.09;95315.38;4994193;28;24487;-74
2022/06/08 08:49:32;;;;;;;3.05;1.15;;;;;;;20.42;63.20;95321.81;5010846;28;24506;-74
2022/06/08 08:52:02;;;;;;;4.43;1.30;;;;;;;20.61;61.60;95320.66;5013089;28;25306;-74
2022/06/08 08:54:31;;;;;;;2.88;1.15;;;;;;;20.68;61.69;95301.38;5012936;28;24591;-75
2022/06/08 08:57:08;;;;;;;2.43;1.33;;;;;;;20.52;63.68;95310.16;5012113;28;24524;-77
2022/06/08 08:59:35;;;;;;;4.40;1.15;;;;;;;20.98;63.87;95307.69;5014689;28;24437;-75
2022/06/08 09:02:01;;;;;;;2.97;1.27;;;;;;;21.50;60.38;95309.72;5012789;28;24437;-76
2022/06/08 09:04:31;;;;;;;4.33;1.50;;;;;;;21.79;61.41;95307.41;5010134;28;24534;-75
2022/06/08 09:07:01;;;;;;;2.63;1.08;;;;;;;21.94;57.90;95301.16;5013359;28;24416;-75
2022/06/08 09:09:32;;;;;;;3.92;1.30;;;;;;;22.01;56.55;95300.47;5013014;28;24455;-74
2022/06/08 09:11:58;;;;;;;8.70;1.23;;;;;;;22.13;57.81;95299.84;5013942;28;24823;-75
2022/06/08 09:14:44;;;;;;;4.72;1.60;;;;;;;22.08;57.02;95293.47;5013059;28;24437;-75
2022/06/08 09:17:13;;;;;;;3.38;1.25;;;;;;;21.84;58.39;95287.44;4997356;28;24499;-76
2022/06/08 09:19:43;;;;;;;3.78;1.30;;;;;;;22.28;57.13;95280.63;4993504;28;24409;-74
2022/06/08 09:22:26;;;;;;;4.70;1.30;;;;;;;21.88;55.66;95272.91;4993960;28;24409;-72
2022/06/08 09:24:55;;;;;;;3.85;1.35;;;;;;;21.59;56.44;95281.53;4993741;28;24448;-72
2022/06/08 09:27:25;;;;;;;2.80;1.10;;;;;;;21.38;57.15;95279.53;5003571;28;25008;-73
2022/06/08 09:29:55;;;;;;;3.30;1.03;;;;;;;21.25;59.41;95274.00;5012460;28;25097;-72
2022/06/08 09:32:26;;;;;;;3.80;1.40;;;;;;;20.45;60.40;95274.16;5012288;28;24440;-71
2022/06/08 09:34:55;;;;;;;3.20;1.08;;;;;;;20.20;60.22;95281.28;5013238;28;24439;-71
2022/06/08 09:37:24;;;;;;;1.42;0.90;;;;;;;19.97;60.16;95274.09;5013213;28;24428;-71
2022/06/08 09:39:52;;;;;;;2.83;1.00;;;;;;;19.72;61.95;95264.56;5012683;28;24440;-72
2022/06/08 09:42:34;;;;;;;4.20;1.23;;;;;;;20.00;61.79;95263.25;5012274;28;24440;-72
2022/06/08 09:45:06;;;;;;;5.80;1.10;;;;;;;20.03;62.63;95260.28;5012838;28;24792;-72
2022/06/08 09:53:33;;;;;;;3.75;1.33;;;;;;;20.04;62.80;95254.03;5012930;28;24452;-72
2022/06/08 09:56:10;;;;;;;5.28;1.50;;;;;;;20.27;60.51;95241.00;5012750;28;24431;-72
2022/06/08 09:58:53;;;;;;;2.10;1.00;;;;;;;20.14;61.16;95240.72;5011722;28;24449;-72
2022/06/08 10:01:29;;;;;;;3.97;1.15;;;;;;;19.86;61.77;95234.19;5010545;28;24458;-72
2022/06/08 10:04:10;;;;;;;2.95;1.08;;;;;;;19.86;63.02;95229.75;5010528;28;24531;-74
2022/06/08 10:06:43;;;;;;;3.47;1.50;;;;;;;20.00;63.86;95225.63;5010348;28;24436;-74
2022/06/08 10:09:24;;;;;;;3.67;1.17;;;;;;;19.74;63.52;95221.38;4995320;28;24913;-74
2022/06/08 10:12:08;;;;;;;4.20;1.00;;;;;;;19.83;62.80;95220.38;5010183;28;24447;-74
2022/06/08 10:14:42;;;;;;;2.60;1.00;;;;;;;19.70;59.01;95217.44;4990797;28;25005;-74
2022/06/08 10:17:16;;;;;;;2.63;1.17;;;;;;;19.57;64.00;95215.28;4995129;28;24456;-74
2022/06/08 10:19:52;;;;;;;2.88;1.30;;;;;;;19.58;65.57;95216.13;5010317;28;25013;-74
2022/06/08 10:22:20;;;;;;;4.63;1.30;;;;;;;19.38;65.73;95222.69;5010502;28;24436;-74
2022/06/08 10:24:58;;;;;;;2.85;1.20;;;;;;;19.75;62.78;95217.75;5009943;28;24439;-74
2022/06/08 10:27:30;;;;;;;3.53;1.10;;;;;;;19.81;63.04;95217.13;5012127;28;24857;-74
2022/06/08 10:30:07;;;;;;;4.10;1.15;;;;;;;19.87;57.12;95210.34;5014300;28;25001;-74
2022/06/08 10:32:39;;;;;;;5.97;1.17;;;;;;;19.87;57.26;95210.34;5014339;28;24444;-74
2022/06/08 10:35:23;;;;;;;2.88;1.20;;;;;;;20.06;57.75;95202.13;5013958;28;24482;-74
2022/06/08 10:37:50;;;;;;;3.47;1.08;;;;;;;20.25;57.58;95205.34;5007084;28;25028;-74
2022/06/08 10:40:24;;;;;;;3.25;1.00;;;;;;;20.42;54.22;95206.09;5014333;28;24444;-74
2022/06/08 10:42:51;;;;;;;3.17;1.27;;;;;;;20.51;56.20;95200.69;5014293;28;24435;-74
2022/06/08 10:45:37;;;;;;;2.10;1.20;;;;;;;20.38;55.46;95195.09;5013884;28;24455;-74
2022/06/08 10:48:26;;;;;;;4.53;0.95;;;;;;;20.26;55.13;95188.56;5013381;28;24502;-74
2022/06/08 10:51:23;;;;;;;3.17;1.15;;;;;;;20.27;55.66;95182.31;5014088;28;24444;-74
2022/06/08 10:56:50;;;;;;;3.92;1.27;;;;;;;20.53;57.14;95179.44;5013051;28;24459;-75
2022/06/08 10:59:19;;;;;;;6.53;1.30;;;;;;;20.72;55.71;95178.19;5013801;28;24973;-75
2022/06/08 11:01:56;;;;;;;2.75;1.17;;;;;;;20.66;54.98;95177.09;5013266;28;24447;-75
2022/06/08 11:04:50;;;;;;;2.90;1.27;;;;;;;20.21;54.53;95170.69;5013939;28;24436;-75
2022/06/08 11:07:19;;;;;;;3.47;1.20;;;;;;;20.05;55.96;95176.81;5002412;28;24472;-75
2022/06/08 11:10:05;;;;;;;4.20;1.35;;;;;;;20.19;56.28;95172.66;5013499;28;24447;-75
2022/06/08 11:13:14;;;;;;;2.92;1.00;;;;;;;20.09;61.02;95172.03;5005897;28;24536;-76
2022/06/08 11:15:48;;;;;;;3.63;0.98;;;;;;;20.18;56.11;95160.50;5002566;28;24440;-76
2022/06/08 11:18:24;;;;;;;2.33;0.98;;;;;;;20.40;55.66;95163.38;5013534;28;24459;-75
2022/06/08 11:21:02;;;;;;;2.42;0.95;;;;;;;20.36;56.42;95162.91;5013385;28;24484;-75
2022/06/08 11:23:33;;;;;;;4.82;1.02;;;;;;;20.22;59.65;95161.81;5013410;28;24423;-75
2022/06/08 11:26:24;;;;;;;3.00;1.10;;;;;;;20.15;59.10;95155.59;5012904;28;24440;-75
2022/06/08 11:28:56;;;;;;;4.22;1.13;;;;;;;20.61;59.10;95160.16;4993806;28;24484;-75
2022/06/08 11:31:49;;;;;;;6.90;1.40;;;;;;;20.53;55.05;95146.06;5006498;28;24455;-76
2022/06/08 11:34:44;;;;;;;11.25;1.38;;;;;;;20.58;55.00;95149.97;5007292;28;25222;-75
2022/06/08 11:37:23;;;;;;;2.30;1.00;;;;;;;20.84;57.83;95147.88;5011026;28;24970;-75
2022/06/08 11:39:57;;;;;;;2.88;1.10;;;;;;;20.30;61.94;95148.63;5013168;28;25004;-75
2022/06/08 11:42:27;;;;;;;3.50;1.15;;;;;;;20.62;56.25;95153.94;5012917;28;24428;-76
2022/06/08 11:44:57;;;;;;;3.05;1.00;;;;;;;20.91;54.11;95156.72;5013035;28;24432;-75
2022/06/08 11:47:30;;;;;;;2.05;1.10;;;;;;;21.23;54.13;95150.38;5012691;28;24432;-75
2022/06/08 11:50:01;;;;;;;2.85;0.85;;;;;;;21.42;48.53;95153.53;5012894;28;25012;-76
2022/06/08 11:52:32;;;;;;;1.73;0.80;;;;;;;21.61;47.63;95139.84;5012832;28;24482;-75
2022/06/08 11:55:12;;;;;;;1.77;0.90;;;;;;;21.99;47.75;95130.09;5012299;28;24506;-75